createdAt,value
2023-01-12T00:00:22.514Z,100976.09
2023-01-12T00:02:49.059Z,100975.00
2023-01-12T00:05:15.706Z,100968.00
2023-01-12T00:07:42.039Z,100968.16
2023-01-12T00:10:08.793Z,100964.84
2023-01-12T00:12:35.173Z,100957.06
2023-01-12T00:15:01.503Z,100959.44
2023-01-12T00:17:27.977Z,100961.53
2023-01-12T00:19:54.379Z,100955.16
2023-01-12T00:22:20.939Z,100953.31
2023-01-12T00:24:47.758Z,100942.13
2023-01-12T00:27:16.381Z,100942.50
2023-01-12T00:29:42.892Z,100932.28
2023-01-12T00:32:17.722Z,100940.41
2023-01-12T00:34:44.250Z,100932.56
2023-01-12T00:37:11.228Z,100927.81
2023-01-12T00:39:40.819Z,100941.13
2023-01-12T00:42:09.217Z,100925.22
2023-01-12T00:44:35.663Z,100927.38
2023-01-12T00:47:02.250Z,100920.22
2023-01-12T00:49:28.786Z,100917.84
2023-01-12T00:51:55.167Z,100917.75
2023-01-12T00:54:21.536Z,100908.34
2023-01-12T00:56:47.894Z,100904.59
2023-01-12T00:59:14.653Z,100904.59
2023-01-12T01:01:41.139Z,100900.47
2023-01-12T01:04:07.625Z,100891.75
2023-01-12T01:06:37.472Z,100900.00
2023-01-12T01:09:03.943Z,100901.88
2023-01-12T01:11:30.365Z,100892.69
2023-01-12T01:13:56.775Z,100885.03
2023-01-12T01:16:23.143Z,100878.09
2023-01-12T01:18:49.509Z,100881.72
2023-01-12T01:21:15.886Z,100876.91
2023-01-12T01:23:42.769Z,100866.94
2023-01-12T01:26:19.191Z,100865.41
2023-01-12T01:28:46.475Z,100858.59
2023-01-12T01:31:18.272Z,100854.75
2023-01-12T01:33:44.942Z,100855.63
2023-01-12T01:36:12.304Z,100842.41
2023-01-12T01:38:39.369Z,100845.56
2023-01-12T01:41:07.404Z,100829.59
2023-01-12T01:43:57.299Z,100827.09
2023-01-12T01:46:41.828Z,100824.94
2023-01-12T01:49:21.036Z,100827.91
2023-01-12T01:51:47.684Z,100820.81
2023-01-12T01:54:15.219Z,100823.09
2023-01-12T01:56:42.326Z,100815.88
2023-01-12T01:59:14.420Z,100817.69
2023-01-12T02:01:40.939Z,100822.22
2023-01-12T02:04:08.383Z,100820.25
2023-01-12T02:06:34.996Z,100826.38
2023-01-12T02:09:06.698Z,100807.94
2023-01-12T02:11:33.257Z,100800.69
2023-01-12T02:13:59.649Z,100805.75
2023-01-12T02:16:30.658Z,100793.19
2023-01-12T02:19:15.852Z,100785.91
2023-01-12T02:22:18.623Z,100794.56
2023-01-12T02:24:47.949Z,100784.88
2023-01-12T02:27:41.482Z,100785.31
2023-01-12T02:30:29.194Z,100779.03
2023-01-12T02:33:10.936Z,100779.78
2023-01-12T02:35:40.242Z,100762.19
2023-01-12T02:38:24.624Z,100752.09
2023-01-12T02:41:36.386Z,100754.09
2023-01-12T02:44:04.647Z,100747.25
2023-01-12T02:46:32.517Z,100747.06
2023-01-12T02:49:08.646Z,100731.31
2023-01-12T02:51:44.450Z,100729.06
2023-01-12T02:54:14.366Z,100717.25
2023-01-12T02:56:44.645Z,100719.09
2023-01-12T02:59:20.446Z,100714.84
2023-01-12T03:01:49.636Z,100706.88
2023-01-12T03:04:17.129Z,100718.94
2023-01-12T03:06:47.762Z,100705.72
2023-01-12T03:09:17.020Z,100695.22
2023-01-12T03:11:46.265Z,100706.16
2023-01-12T03:14:14.474Z,100694.22
2023-01-12T03:16:40.837Z,100676.03
2023-01-12T03:19:26.229Z,100689.84
2023-01-12T03:21:58.823Z,100681.03
2023-01-12T03:24:28.659Z,100704.03
2023-01-12T03:27:01.922Z,100676.75
2023-01-12T03:29:51.680Z,100661.97
2023-01-12T03:32:18.787Z,100670.50
2023-01-12T03:34:45.996Z,100658.69
2023-01-12T03:37:18.172Z,100660.94
2023-01-12T03:39:58.049Z,100636.66
2023-01-12T03:42:29.552Z,100631.84
2023-01-12T03:45:14.139Z,100625.59
2023-01-12T03:47:43.545Z,100618.75
2023-01-12T03:50:17.953Z,100606.69
2023-01-12T03:52:46.471Z,100603.13
2023-01-12T03:55:16.741Z,100592.63
2023-01-12T03:57:44.541Z,100592.34
2023-01-12T04:00:13.291Z,100570.66
2023-01-12T04:02:42.541Z,100546.75
2023-01-12T04:05:10.291Z,100529.31
2023-01-12T04:07:36.810Z,100491.53
2023-01-12T04:10:03.609Z,100523.06
2023-01-12T04:12:29.967Z,100494.25
2023-01-12T04:14:56.328Z,100476.63
2023-01-12T04:17:22.743Z,100486.28
2023-01-12T04:19:49.190Z,100459.88
2023-01-12T04:22:15.949Z,100460.00
2023-01-12T04:24:42.443Z,100430.47
2023-01-12T04:27:08.785Z,100436.88
2023-01-12T04:29:35.318Z,100436.75
2023-01-12T04:32:02.080Z,100443.69
2023-01-12T04:34:29.758Z,100438.84
2023-01-12T04:36:56.148Z,100426.06
2023-01-12T04:39:22.581Z,100417.56
2023-01-12T04:41:48.956Z,100413.84
2023-01-12T04:44:15.304Z,100408.31
2023-01-12T04:46:41.625Z,100429.50
2023-01-12T04:49:08.317Z,100398.50
2023-01-12T04:51:34.669Z,100390.16
2023-01-12T04:54:01.134Z,100391.84
2023-01-12T04:56:27.735Z,100403.19
2023-01-12T04:58:58.951Z,100405.44
2023-01-12T05:01:27.175Z,100405.44
2023-01-12T05:03:58.538Z,100394.41
2023-01-12T05:06:25.075Z,100394.41
2023-01-12T05:08:51.589Z,100389.25
2023-01-12T05:11:18.119Z,100371.53
2023-01-12T05:13:44.472Z,100363.25
2023-01-12T05:16:13.319Z,100306.72
2023-01-12T05:18:39.710Z,100366.81
2023-01-12T05:21:06.240Z,100392.06
2023-01-12T05:23:32.616Z,100371.50
2023-01-12T05:26:03.505Z,100368.78
2023-01-12T05:28:30.764Z,100338.13
2023-01-12T05:31:03.583Z,100306.84
2023-01-12T05:33:31.132Z,100346.88
2023-01-12T05:35:58.811Z,100374.75
2023-01-12T05:38:25.506Z,100367.94
2023-01-12T05:40:51.814Z,100360.41
2023-01-12T05:43:18.199Z,100341.09
2023-01-12T05:45:44.591Z,100329.28
2023-01-12T05:48:11.114Z,100360.13
2023-01-12T05:50:37.546Z,100351.88
2023-01-12T05:53:04.130Z,100375.72
2023-01-12T05:55:30.479Z,100342.06
2023-01-12T05:57:59.902Z,100350.31
2023-01-12T06:00:26.689Z,100347.03
2023-01-12T06:02:53.087Z,100354.28
2023-01-12T06:05:19.552Z,100343.03
2023-01-12T06:07:46.001Z,100363.34
2023-01-12T06:10:12.938Z,100358.81
2023-01-12T06:12:39.506Z,100362.53
2023-01-12T06:15:06.360Z,100364.34
2023-01-12T06:17:32.716Z,100348.00
2023-01-12T06:19:59.137Z,100369.00
2023-01-12T06:22:25.501Z,100363.59
2023-01-12T06:24:51.869Z,100379.81
2023-01-12T06:27:18.271Z,100369.41
2023-01-12T06:29:44.712Z,100357.34
2023-01-12T06:32:11.073Z,100366.00
2023-01-12T06:34:38.082Z,100394.00
2023-01-12T06:37:05.288Z,100383.47
2023-01-12T06:39:31.792Z,100379.78
2023-01-12T06:42:01.262Z,100375.63
2023-01-12T06:44:27.662Z,100382.03
2023-01-12T06:46:54.244Z,100376.94
2023-01-12T06:49:21.737Z,100374.47
2023-01-12T06:51:48.475Z,100391.41
2023-01-12T06:54:16.243Z,100396.19
2023-01-12T06:56:44.773Z,100396.75
2023-01-12T06:59:11.526Z,100397.19
2023-01-12T07:01:41.287Z,100391.75
2023-01-12T07:04:08.204Z,100390.22
2023-01-12T07:06:34.918Z,100389.34
2023-01-12T07:09:01.544Z,100395.16
2023-01-12T07:11:27.886Z,100405.22
2023-01-12T07:13:55.495Z,100403.19
2023-01-12T07:16:21.870Z,100399.81
2023-01-12T07:18:48.228Z,100408.31
2023-01-12T07:21:14.536Z,100399.75
2023-01-12T07:23:41.017Z,100403.75
2023-01-12T07:26:07.497Z,100417.81
2023-01-12T07:28:34.122Z,100419.81
2023-01-12T07:31:01.639Z,100408.25
2023-01-12T07:33:28.184Z,100418.06
2023-01-12T07:36:00.349Z,100417.09
2023-01-12T07:38:27.930Z,100421.53
2023-01-12T07:40:54.691Z,100411.66
2023-01-12T07:43:21.148Z,100420.91
2023-01-12T07:45:49.915Z,100424.78
2023-01-12T07:48:16.340Z,100428.47
2023-01-12T07:50:42.660Z,100423.75
2023-01-12T07:53:09.198Z,100429.28
2023-01-12T07:55:35.598Z,100415.09
2023-01-12T07:58:03.559Z,100434.09
2023-01-12T08:00:31.059Z,100427.78
2023-01-12T08:03:13.164Z,100437.00
2023-01-12T08:05:39.887Z,100436.16
2023-01-12T08:08:07.027Z,100430.06
2023-01-12T08:10:33.508Z,100446.84
2023-01-12T08:13:00.078Z,100442.13
2023-01-12T08:15:29.096Z,100455.34
2023-01-12T08:18:27.732Z,100446.47
2023-01-12T08:20:58.023Z,100456.69
2023-01-12T08:23:36.160Z,100442.53
2023-01-12T08:26:05.536Z,100457.63
2023-01-12T08:28:36.090Z,100468.50
2023-01-12T08:31:02.577Z,100457.31
2023-01-12T08:33:29.149Z,100468.50
2023-01-12T08:35:55.670Z,100456.88
2023-01-12T08:38:22.306Z,100470.38
2023-01-12T08:40:48.660Z,100467.53
2023-01-12T08:43:15.139Z,100469.22
2023-01-12T08:45:41.523Z,100477.34
2023-01-12T08:48:07.916Z,100481.28
2023-01-12T08:50:34.360Z,100486.69
2023-01-12T08:53:00.909Z,100488.22
2023-01-12T08:55:27.262Z,100481.53
2023-01-12T08:57:55.454Z,100494.03
2023-01-12T09:00:22.027Z,100485.09
2023-01-12T09:02:48.407Z,100487.16
2023-01-12T09:05:14.755Z,100500.00
2023-01-12T09:07:41.062Z,100492.41
2023-01-12T09:10:07.914Z,100500.38
2023-01-12T09:12:34.386Z,100496.84
2023-01-12T09:15:00.812Z,100504.09
2023-01-12T09:17:28.728Z,100504.50
2023-01-12T09:19:55.146Z,100514.31
2023-01-12T09:22:21.767Z,100504.19
2023-01-12T09:24:48.156Z,100521.28
2023-01-12T09:27:14.578Z,100514.03
2023-01-12T09:29:40.990Z,100519.28
2023-01-12T09:32:07.328Z,100530.66
2023-01-12T09:34:33.690Z,100524.22
2023-01-12T09:37:00.022Z,100529.31
2023-01-12T09:39:28.424Z,100532.03
2023-01-12T09:41:56.129Z,100533.75
2023-01-12T09:44:25.690Z,100530.19
2023-01-12T09:46:52.557Z,100541.41
2023-01-12T09:49:22.762Z,100550.22
2023-01-12T09:51:57.675Z,100542.09
2023-01-12T09:54:24.121Z,100550.22
2023-01-12T09:57:07.122Z,100556.94
2023-01-12T10:00:08.085Z,100558.50
2023-01-12T10:02:40.549Z,100573.19
2023-01-12T10:05:14.834Z,100561.22
2023-01-12T10:07:42.235Z,100560.19
2023-01-12T10:10:14.409Z,100565.44
2023-01-12T10:12:50.073Z,100562.75
2023-01-12T10:15:38.255Z,100574.97
2023-01-12T10:18:30.629Z,100573.81
2023-01-12T10:20:58.562Z,100572.97
2023-01-12T10:23:27.018Z,100578.94
2023-01-12T10:26:24.163Z,100582.47
2023-01-12T10:28:53.823Z,100578.22
2023-01-12T10:31:23.794Z,100581.81
2023-01-12T10:34:07.638Z,100575.53
2023-01-12T10:36:48.140Z,100579.91
2023-01-12T10:39:29.234Z,100579.75
2023-01-12T10:42:24.157Z,100579.47
2023-01-12T10:45:13.302Z,100575.59
2023-01-12T10:47:39.850Z,100580.16
2023-01-12T10:50:21.283Z,100584.75
2023-01-12T10:52:48.417Z,100578.31
2023-01-12T10:55:20.966Z,100582.56
2023-01-12T10:57:48.561Z,100583.56
2023-01-12T11:00:27.275Z,100584.09
2023-01-12T11:02:53.851Z,100590.53
2023-01-12T11:05:37.727Z,100577.97
2023-01-12T11:08:21.994Z,100580.47
2023-01-12T11:10:48.471Z,100594.72
2023-01-12T11:13:27.223Z,100576.94
2023-01-12T11:16:22.312Z,100575.91
2023-01-12T11:19:14.672Z,100576.94
2023-01-12T11:21:44.748Z,100569.09
2023-01-12T11:24:51.968Z,100573.38
2023-01-12T11:27:31.209Z,100569.41
2023-01-12T11:30:15.993Z,100569.72
2023-01-12T11:32:59.772Z,100572.75
2023-01-12T11:35:38.511Z,100561.22
2023-01-12T11:38:18.506Z,100567.59
2023-01-12T11:40:45.777Z,100560.50
2023-01-12T11:43:45.525Z,100554.16
2023-01-12T11:46:22.629Z,100560.81
2023-01-12T11:48:54.787Z,100551.53
2023-01-12T11:51:21.723Z,100558.81
2023-01-12T11:53:48.416Z,100553.09
2023-01-12T11:56:23.498Z,100549.34
2023-01-12T11:58:56.630Z,100561.59
2023-01-12T12:01:36.676Z,100557.78
2023-01-12T12:04:24.949Z,100544.88
2023-01-12T12:07:15.642Z,100548.38
2023-01-12T12:10:04.705Z,100550.28
2023-01-12T12:13:06.454Z,100539.63
2023-01-12T12:15:51.590Z,100546.34
2023-01-12T12:18:34.533Z,100546.88
2023-01-12T12:21:12.818Z,100528.09
2023-01-12T12:23:47.165Z,100540.47
2023-01-12T12:26:26.883Z,100528.84
2023-01-12T12:29:22.384Z,100537.28
2023-01-12T12:31:57.349Z,100529.16
2023-01-12T12:34:30.019Z,100522.34
2023-01-12T12:37:27.336Z,100521.13
2023-01-12T12:40:02.662Z,100514.47
2023-01-12T12:42:56.778Z,100516.81
2023-01-12T12:45:38.755Z,100508.75
2023-01-12T12:48:32.061Z,100508.91
2023-01-12T12:51:07.713Z,100508.91
2023-01-12T12:53:37.351Z,100512.31
2023-01-12T12:56:07.640Z,100510.09
2023-01-12T12:58:51.260Z,100501.47
2023-01-12T13:01:20.831Z,100506.34
2023-01-12T13:03:49.341Z,100501.25
2023-01-12T13:06:32.585Z,100504.19
2023-01-12T13:09:03.527Z,100488.03
2023-01-12T13:11:50.220Z,100481.66
2023-01-12T13:14:21.254Z,100485.34
2023-01-12T13:16:50.245Z,100483.38
2023-01-12T13:19:32.599Z,100476.56
2023-01-12T13:21:59.819Z,100465.91
2023-01-12T13:24:46.813Z,100485.41
2023-01-12T13:27:51.072Z,100477.22
2023-01-12T13:30:26.570Z,100457.78
2023-01-12T13:32:52.837Z,100468.06
2023-01-12T13:35:35.421Z,100468.44
2023-01-12T13:38:44.521Z,100470.38
2023-01-12T13:41:14.990Z,100453.06
2023-01-12T13:43:53.600Z,100456.59
2023-01-12T13:46:36.487Z,100456.06
2023-01-12T13:49:03.768Z,100460.72
2023-01-12T13:51:55.420Z,100479.13
2023-01-12T13:54:21.794Z,100458.38
2023-01-12T13:56:58.492Z,100458.31
2023-01-12T13:59:33.205Z,100454.16
2023-01-12T14:01:59.684Z,100464.13
2023-01-12T14:04:50.774Z,100462.56
2023-01-12T14:07:27.026Z,100455.78
2023-01-12T14:10:11.245Z,100447.81
2023-01-12T14:12:46.642Z,100443.06
2023-01-12T14:15:40.040Z,100454.22
2023-01-12T14:18:13.438Z,100451.56
2023-01-12T14:20:50.609Z,100447.81
2023-01-12T14:23:21.797Z,100453.91
2023-01-12T14:26:06.757Z,100437.44
2023-01-12T14:28:33.802Z,100451.34
2023-01-12T14:31:00.887Z,100450.13
2023-01-12T14:33:31.421Z,100437.44
2023-01-12T14:36:03.987Z,100434.94
2023-01-12T14:38:31.171Z,100446.03
2023-01-12T14:41:03.768Z,100447.81
2023-01-12T14:43:35.209Z,100446.16
2023-01-12T14:46:02.866Z,100445.94
2023-01-12T14:48:32.676Z,100431.41
2023-01-12T14:51:22.362Z,100443.31
2023-01-12T14:53:56.275Z,100441.69
2023-01-12T14:56:26.811Z,100441.84
2023-01-12T14:58:53.768Z,100434.03
2023-01-12T15:01:34.034Z,100435.25
2023-01-12T15:04:02.141Z,100427.63
2023-01-12T15:06:28.883Z,100431.19
2023-01-12T15:08:59.884Z,100433.25
2023-01-12T15:11:36.536Z,100429.31
2023-01-12T15:14:06.135Z,100435.97
2023-01-12T15:16:32.547Z,100438.13
2023-01-12T15:18:59.158Z,100433.41
2023-01-12T15:21:26.779Z,100422.03
2023-01-12T15:23:53.627Z,100418.03
2023-01-12T15:26:21.266Z,100432.88
2023-01-12T15:28:48.918Z,100415.00
2023-01-12T15:31:27.588Z,100424.22
2023-01-12T15:33:56.687Z,100417.16
2023-01-12T15:36:23.471Z,100423.28
2023-01-12T15:38:50.050Z,100429.31
2023-01-12T15:41:23.251Z,100408.28
2023-01-12T15:43:49.649Z,100404.13
2023-01-12T15:46:19.175Z,100409.13
2023-01-12T15:48:47.203Z,100421.13
2023-01-12T15:51:15.487Z,100409.44
2023-01-12T15:53:43.494Z,100409.66
2023-01-12T15:56:12.603Z,100415.00
2023-01-12T15:58:39.052Z,100414.16
2023-01-12T16:01:05.868Z,100419.28
2023-01-12T16:04:00.477Z,100410.13
2023-01-12T16:06:18.586Z,100421.13
2023-01-12T16:08:45.208Z,100404.88
2023-01-12T16:11:20.034Z,100426.22
2023-01-12T16:13:53.432Z,100414.84
2023-01-12T16:16:19.937Z,100418.03
2023-01-12T16:18:47.340Z,100420.66
2023-01-12T16:21:19.241Z,100414.41
2023-01-12T16:23:46.207Z,100411.69
2023-01-12T16:26:12.634Z,100424.00
2023-01-12T16:28:39.209Z,100417.25
2023-01-12T16:31:07.262Z,100411.06
2023-01-12T16:33:33.703Z,100419.44
2023-01-12T16:36:00.238Z,100405.81
2023-01-12T16:38:26.565Z,100418.97
2023-01-12T16:40:52.922Z,100432.19
2023-01-12T16:43:19.435Z,100428.94
2023-01-12T16:45:45.841Z,100435.53
2023-01-12T16:48:12.524Z,100438.22
2023-01-12T16:50:43.376Z,100425.63
2023-01-12T16:53:11.406Z,100439.84
2023-01-12T16:55:38.371Z,100436.13
2023-01-12T16:58:06.211Z,100421.28
2023-01-12T17:00:35.559Z,100429.41
2023-01-12T17:03:03.241Z,100433.47
2023-01-12T17:05:30.525Z,100431.41
2023-01-12T17:07:57.146Z,100429.84
2023-01-12T17:10:23.931Z,100441.22
2023-01-12T17:12:57.142Z,100428.16
2023-01-12T17:15:27.320Z,100430.94
2023-01-12T17:17:55.399Z,100430.09
2023-01-12T17:20:21.904Z,100413.63
2023-01-12T17:22:48.416Z,100442.25
2023-01-12T17:25:22.049Z,100424.97
2023-01-12T17:27:48.878Z,100419.28
2023-01-12T17:30:15.643Z,100420.97
2023-01-12T17:32:42.075Z,100428.59
2023-01-12T17:35:08.602Z,100429.25
2023-01-12T17:37:35.115Z,100428.38
2023-01-12T17:40:01.679Z,100425.84
2023-01-12T17:42:30.573Z,100429.94
2023-01-12T17:44:57.198Z,100429.09
2023-01-12T17:47:24.746Z,100418.75
2023-01-12T17:49:53.520Z,100428.38
2023-01-12T17:52:20.331Z,100426.47
2023-01-12T17:54:48.128Z,100421.44
2023-01-12T17:57:16.904Z,100420.16
2023-01-12T17:59:43.594Z,100417.19
2023-01-12T18:02:11.527Z,100419.88
2023-01-12T18:04:37.956Z,100422.97
2023-01-12T18:07:04.527Z,100417.88
2023-01-12T18:09:30.934Z,100422.97
2023-01-12T18:11:57.548Z,100410.47
2023-01-12T18:14:24.116Z,100429.25
2023-01-12T18:16:51.831Z,100416.72
2023-01-12T18:19:18.371Z,100413.16
2023-01-12T18:21:45.149Z,100413.31
2023-01-12T18:24:11.538Z,100415.81
2023-01-12T18:26:38.785Z,100408.44
2023-01-12T18:29:06.489Z,100413.00
2023-01-12T18:31:34.425Z,100404.41
2023-01-12T18:34:01.747Z,100410.03
2023-01-12T18:36:28.793Z,100399.69
2023-01-12T18:38:55.296Z,100404.72
2023-01-12T18:41:23.085Z,100416.25
2023-01-12T18:43:49.556Z,100395.47
2023-01-12T18:46:16.014Z,100389.19
2023-01-12T18:48:47.242Z,100409.69
2023-01-12T18:51:15.159Z,100396.22
2023-01-12T18:53:41.906Z,100409.84
2023-01-12T18:56:08.491Z,100400.34
2023-01-12T18:58:35.308Z,100396.22
2023-01-12T19:01:03.894Z,100406.34
2023-01-12T19:03:31.557Z,100406.50
2023-01-12T19:05:57.970Z,100410.13
2023-01-12T19:08:26.828Z,100398.41
2023-01-12T19:10:53.582Z,100403.25
2023-01-12T19:13:20.735Z,100413.72
2023-01-12T19:15:47.127Z,100405.66
2023-01-12T19:18:13.657Z,100420.81
2023-01-12T19:20:40.075Z,100416.72
2023-01-12T19:23:06.618Z,100398.56
2023-01-12T19:25:32.973Z,100405.22
2023-01-12T19:27:59.873Z,100397.38
2023-01-12T19:30:26.355Z,100400.34
2023-01-12T19:32:52.907Z,100377.81
2023-01-12T19:35:19.433Z,100388.81
2023-01-12T19:37:49.856Z,100378.75
2023-01-12T19:40:16.933Z,100379.78
2023-01-12T19:42:45.717Z,100366.69
2023-01-12T19:45:12.572Z,100375.28
2023-01-12T19:47:39.149Z,100383.72
2023-01-12T19:50:07.191Z,100382.75
2023-01-12T19:52:37.502Z,100363.09
2023-01-12T19:55:05.776Z,100377.44
2023-01-12T19:57:34.140Z,100376.50
2023-01-12T20:00:00.803Z,100360.56
2023-01-12T20:02:27.284Z,100354.84
2023-01-12T20:04:54.143Z,100379.06
2023-01-12T20:07:20.518Z,100357.63
2023-01-12T20:09:47.424Z,100352.72
2023-01-12T20:12:14.997Z,100344.06
2023-01-12T20:14:41.699Z,100345.19
2023-01-12T20:17:10.156Z,100347.06
2023-01-12T20:19:36.473Z,100355.66
2023-01-12T20:22:03.235Z,100355.88
2023-01-12T20:24:29.653Z,100347.84
2023-01-12T20:26:56.269Z,100340.38
2023-01-12T20:29:22.714Z,100351.72
2023-01-12T20:31:49.182Z,100351.41
2023-01-12T20:34:15.592Z,100321.97
2023-01-12T20:36:41.982Z,100328.06
2023-01-12T20:39:08.667Z,100310.81
2023-01-12T20:41:35.058Z,100302.66
2023-01-12T20:44:01.635Z,100314.16
2023-01-12T20:46:28.173Z,100320.03
2023-01-12T20:48:54.566Z,100315.59
2023-01-12T20:51:21.098Z,100304.59
2023-01-12T20:53:48.561Z,100327.66
2023-01-12T20:56:15.008Z,100327.50
2023-01-12T20:58:41.455Z,100334.63
2023-01-12T21:01:10.055Z,100349.53
2023-01-12T21:03:36.606Z,100343.03
2023-01-12T21:06:08.971Z,100356.13
2023-01-12T21:08:35.416Z,100345.13
2023-01-12T21:11:01.895Z,100347.50
2023-01-12T21:13:28.206Z,100347.50
2023-01-12T21:16:02.522Z,100337.31
2023-01-12T21:18:30.185Z,100348.44
2023-01-12T21:20:57.120Z,100368.56
2023-01-12T21:23:25.055Z,100339.13
2023-01-12T21:25:52.069Z,100345.94
2023-01-12T21:28:19.448Z,100338.28
2023-01-12T21:30:45.858Z,100333.72
2023-01-12T21:33:13.317Z,100350.13
2023-01-12T21:35:39.968Z,100350.66
2023-01-12T21:38:06.712Z,100352.59
2023-01-12T21:40:33.340Z,100354.13
2023-01-12T21:43:00.392Z,100353.41
2023-01-12T21:45:26.751Z,100350.13
2023-01-12T21:47:54.724Z,100348.88
2023-01-12T21:50:21.923Z,100349.09
2023-01-12T21:52:48.282Z,100356.66
2023-01-12T21:55:14.711Z,100358.94
2023-01-12T21:57:41.321Z,100342.31
2023-01-12T22:00:08.451Z,100359.06
2023-01-12T22:02:34.843Z,100368.88
2023-01-12T22:05:01.216Z,100371.53
2023-01-12T22:07:27.997Z,100373.69
2023-01-12T22:09:54.501Z,100385.44
2023-01-12T22:12:21.348Z,100373.06
2023-01-12T22:14:47.756Z,100372.06
2023-01-12T22:17:14.094Z,100387.97
2023-01-12T22:19:40.402Z,100383.66
2023-01-12T22:22:06.729Z,100383.66
2023-01-12T22:24:33.287Z,100378.09
2023-01-12T22:26:59.613Z,100397.72
2023-01-12T22:29:26.197Z,100388.91
2023-01-12T22:31:52.883Z,100387.13
2023-01-12T22:34:19.333Z,100388.59
2023-01-12T22:36:47.996Z,100401.66
2023-01-12T22:39:14.455Z,100395.41
2023-01-12T22:41:41.103Z,100393.28
2023-01-12T22:44:07.513Z,100392.91
2023-01-12T22:46:33.985Z,100405.44
2023-01-12T22:49:00.554Z,100391.47
2023-01-12T22:51:28.371Z,100404.28
2023-01-12T22:53:55.881Z,100398.31
2023-01-12T22:56:22.902Z,100414.53
2023-01-12T22:58:54.578Z,100420.66
2023-01-12T23:01:23.039Z,100411.44
2023-01-12T23:03:53.400Z,100407.88
2023-01-12T23:06:20.425Z,100407.56
2023-01-12T23:08:46.916Z,100417.56
2023-01-12T23:11:14.357Z,100404.72
2023-01-12T23:13:42.144Z,100409.84
2023-01-12T23:16:10.406Z,100416.28
2023-01-12T23:18:38.192Z,100404.44
2023-01-12T23:21:07.754Z,100413.91
2023-01-12T23:23:34.166Z,100405.81
2023-01-12T23:26:02.472Z,100411.31
2023-01-12T23:28:28.972Z,100420.88
2023-01-12T23:31:05.220Z,100420.50
2023-01-12T23:33:32.223Z,100421.25
2023-01-12T23:36:07.257Z,100414.16
2023-01-12T23:38:34.386Z,100422.03
2023-01-12T23:41:19.227Z,100429.72
2023-01-12T23:43:47.115Z,100424.22
2023-01-12T23:46:14.968Z,100430.81
2023-01-12T23:48:41.361Z,100416.63
2023-01-12T23:51:07.791Z,100412.91
2023-01-12T23:53:34.823Z,100420.75
2023-01-12T23:56:12.826Z,100417.22
2023-01-12T23:58:39.389Z,100408.16
